createdAt,value
2023-03-11T00:09:39.641Z,2
2023-03-11T00:28:59.467Z,1.8
2023-03-11T00:48:18.766Z,1.8
2023-03-11T01:07:38.518Z,1.7
2023-03-11T01:26:58.110Z,1.7
2023-03-11T01:46:18.327Z,1.6
2023-03-11T02:05:37.069Z,1.7
2023-03-11T02:24:55.837Z,1.7
2023-03-11T02:44:15.362Z,1.5
2023-03-11T03:03:34.862Z,1.7
2023-03-11T03:22:56.736Z,1.4
2023-03-11T03:42:14.738Z,1
2023-03-11T04:01:35.524Z,1.4
2023-03-11T04:20:56.630Z,1.3
2023-03-11T04:40:15.396Z,1.1
2023-03-11T04:59:33.947Z,1.1
2023-03-11T05:18:52.066Z,1.2
2023-03-11T05:38:08.634Z,1.1
2023-03-11T05:57:27.800Z,1.1
2023-03-11T06:16:46.772Z,1.2
2023-03-11T06:36:04.081Z,0.9
2023-03-11T06:55:25.227Z,1.5
2023-03-11T07:14:44.959Z,1
2023-03-11T07:34:04.135Z,1.1
2023-03-11T07:53:24.173Z,0.9
2023-03-11T08:12:45.678Z,0.8
2023-03-11T08:32:14.978Z,0
2023-03-11T08:51:43.468Z,0.5
2023-03-11T09:11:06.495Z,0.4
2023-03-11T09:30:24.486Z,-0.4
2023-03-11T09:49:49.081Z,-1.1
2023-03-11T10:09:01.150Z,-3.4
2023-03-11T10:28:15.418Z,-3.5
2023-03-11T10:47:37.672Z,-2.5
2023-03-11T11:06:53.088Z,-1.8
2023-03-11T11:26:09.155Z,-2.1
2023-03-11T11:45:31.059Z,-1.7
2023-03-11T12:04:46.449Z,-2.9
2023-03-11T12:24:04.640Z,-0.9
2023-03-11T12:43:20.101Z,-2.2
2023-03-11T13:02:40.250Z,-2.3
2023-03-11T13:21:58.864Z,-2
2023-03-11T13:41:15.580Z,-2.1
2023-03-11T14:00:35.400Z,-2.2
2023-03-11T14:19:51.984Z,-2.3
2023-03-11T14:39:11.335Z,-1.5
2023-03-11T14:58:30.991Z,-3.3
2023-03-11T15:17:51.343Z,-1.9
2023-03-11T15:37:08.997Z,-2.7
2023-03-11T15:56:26.874Z,-1.6
2023-03-11T16:15:44.576Z,-1.3
2023-03-11T16:35:02.655Z,-2.8
2023-03-11T16:54:20.693Z,-2.2
2023-03-11T17:13:38.393Z,-1.6
2023-03-11T17:32:51.614Z,-1.5
2023-03-11T17:52:08.163Z,-1.6
2023-03-11T18:11:26.883Z,-1.8
2023-03-11T18:30:44.717Z,-1.6
2023-03-11T18:50:02.929Z,-1
2023-03-11T19:09:21.899Z,-0.8
2023-03-11T19:28:41.370Z,-0.7
2023-03-11T19:47:59.600Z,-0.8
2023-03-11T20:07:17.600Z,-0.5
2023-03-11T20:26:35.772Z,-0.4
2023-03-11T20:45:52.869Z,-0.3
2023-03-11T21:05:12.172Z,-0.3
2023-03-11T21:24:18.737Z,-0.1
2023-03-11T21:43:37.326Z,0.1
2023-03-11T22:02:54.118Z,-0.1
2023-03-11T22:22:11.798Z,-0.3
2023-03-11T22:41:31.817Z,0
2023-03-11T23:00:48.860Z,0.1
2023-03-11T23:20:07.616Z,0.4
2023-03-11T23:39:29.170Z,0.3
2023-03-11T23:58:47.138Z,0.3
